createdAt,value
2023-03-08T00:01:24.345Z,7.50
2023-03-08T00:03:56.528Z,6.47
2023-03-08T00:06:27.484Z,6.37
2023-03-08T00:09:00.398Z,6.50
2023-03-08T00:41:05.586Z,8.10
2023-03-08T00:43:33.431Z,7.70
2023-03-08T00:46:01.606Z,8.60
2023-03-08T00:48:28.632Z,8.27
2023-03-08T00:50:56.171Z,9.13
2023-03-08T00:53:23.427Z,9.27
2023-03-08T00:55:59.042Z,10.47
2023-03-08T00:58:28.844Z,10.97
2023-03-08T01:01:02.390Z,11.63
2023-03-08T01:03:29.863Z,14.97
2023-03-08T01:05:58.767Z,16.77
2023-03-08T01:08:27.105Z,17.20
2023-03-08T01:11:00.421Z,18.10
2023-03-08T01:13:32.617Z,19.20
2023-03-08T01:16:00.865Z,20.63
2023-03-08T01:18:28.099Z,19.40
2023-03-08T01:21:04.208Z,21.33
2023-03-08T01:23:32.487Z,21.93
2023-03-08T01:26:06.580Z,21.70
2023-03-08T01:28:34.863Z,21.30
2023-03-08T01:31:12.097Z,21.83
2023-03-08T01:33:40.937Z,22.10
2023-03-08T01:36:11.338Z,21.63
2023-03-08T01:38:39.044Z,23.53
2023-03-08T01:41:08.823Z,22.90
2023-03-08T01:43:39.429Z,26.33
2023-03-08T01:46:26.428Z,25.70
2023-03-08T01:49:13.346Z,25.47
2023-03-08T01:51:54.852Z,26.80
2023-03-08T01:54:29.717Z,27.30
2023-03-08T01:57:03.615Z,25.83
2023-03-08T01:59:34.131Z,28.20
2023-03-08T02:02:02.533Z,24.77
2023-03-08T02:04:29.666Z,25.03
2023-03-08T02:06:56.801Z,23.77
2023-03-08T02:09:24.710Z,21.43
2023-03-08T02:11:52.962Z,23.20
2023-03-08T02:14:20.200Z,23.93
2023-03-08T02:16:47.383Z,23.63
2023-03-08T02:19:40.028Z,24.43
2023-03-08T02:22:12.936Z,24.87
2023-03-08T02:24:40.176Z,23.23
2023-03-08T02:27:13.441Z,23.13
2023-03-08T02:29:40.733Z,25.57
2023-03-08T02:32:08.183Z,23.43
2023-03-08T02:34:35.828Z,23.70
2023-03-08T02:37:03.675Z,23.77
2023-03-08T02:39:31.020Z,23.63
2023-03-08T02:41:58.414Z,22.43
2023-03-08T02:44:25.740Z,23.00
2023-03-08T02:46:53.891Z,22.87
2023-03-08T02:49:21.394Z,21.20
2023-03-08T02:51:49.611Z,20.50
2023-03-08T02:54:17.196Z,21.70
2023-03-08T02:56:44.931Z,21.67
2023-03-08T02:59:12.088Z,21.50
2023-03-08T03:01:39.279Z,21.40
2023-03-08T03:04:06.424Z,20.83
2023-03-08T03:06:34.206Z,20.37
2023-03-08T03:09:01.291Z,21.77
2023-03-08T03:11:28.697Z,21.43
2023-03-08T03:14:00.672Z,21.70
2023-03-08T03:16:48.328Z,22.30
2023-03-08T03:19:15.499Z,20.63
2023-03-08T03:21:42.763Z,20.17
2023-03-08T03:24:09.979Z,20.33
2023-03-08T03:26:37.096Z,20.43
2023-03-08T03:29:04.156Z,18.83
2023-03-08T03:31:31.365Z,21.40
2023-03-08T03:33:58.777Z,19.60
2023-03-08T03:36:26.056Z,18.33
2023-03-08T03:38:53.352Z,19.23
2023-03-08T03:41:23.092Z,18.80
2023-03-08T03:43:51.606Z,19.20
2023-03-08T03:46:21.338Z,18.53
2023-03-08T03:48:48.576Z,18.43
2023-03-08T03:51:19.552Z,19.43
2023-03-08T03:53:47.655Z,17.90
2023-03-08T03:56:19.182Z,17.77
2023-03-08T03:58:47.204Z,17.77
2023-03-08T04:01:30.049Z,17.87
2023-03-08T04:03:58.301Z,17.90
2023-03-08T04:06:33.622Z,18.40
2023-03-08T04:09:07.281Z,18.60
2023-03-08T04:11:38.389Z,18.53
2023-03-08T04:14:06.401Z,19.10
2023-03-08T04:16:36.810Z,18.93
2023-03-08T04:19:14.163Z,18.87
2023-03-08T04:21:41.356Z,19.73
2023-03-08T04:24:08.775Z,19.43
2023-03-08T04:26:36.076Z,19.43
2023-03-08T04:29:06.415Z,20.27
2023-03-08T04:31:35.261Z,18.80
2023-03-08T04:34:02.966Z,18.30
2023-03-08T04:36:30.168Z,19.97
2023-03-08T04:38:57.388Z,19.93
2023-03-08T04:41:25.013Z,19.63
2023-03-08T04:43:57.597Z,19.13
2023-03-08T04:46:28.712Z,18.70
2023-03-08T04:48:56.165Z,17.03
2023-03-08T04:51:26.655Z,18.57
2023-03-08T04:53:53.752Z,18.70
2023-03-08T04:56:21.023Z,18.50
2023-03-08T04:58:48.750Z,16.33
2023-03-08T05:01:23.877Z,16.60
2023-03-08T05:03:53.328Z,17.10
2023-03-08T05:06:22.678Z,17.03
2023-03-08T05:08:50.002Z,17.10
2023-03-08T05:11:24.120Z,16.47
2023-03-08T05:13:53.751Z,15.53
2023-03-08T05:16:21.233Z,15.90
2023-03-08T05:18:49.104Z,15.67
2023-03-08T05:21:20.622Z,16.47
2023-03-08T05:23:48.339Z,15.30
2023-03-08T05:26:17.617Z,15.60
2023-03-08T05:28:45.435Z,15.90
2023-03-08T05:31:14.865Z,15.57
2023-03-08T05:33:44.281Z,15.77
2023-03-08T05:36:14.126Z,15.80
2023-03-08T05:38:41.868Z,16.30
2023-03-08T05:41:14.394Z,14.83
2023-03-08T05:43:41.971Z,15.77
2023-03-08T05:46:16.951Z,20.25
2023-03-08T05:48:44.714Z,27.02
2023-03-08T05:51:15.695Z,22.55
2023-03-08T05:53:43.555Z,19.42
2023-03-08T05:56:14.900Z,16.80
2023-03-08T05:58:43.725Z,17.40
2023-03-08T06:01:24.358Z,17.88
2023-03-08T06:03:54.484Z,18.15
2023-03-08T06:06:24.444Z,17.97
2023-03-08T06:08:56.476Z,17.77
2023-03-08T06:11:24.004Z,17.40
2023-03-08T06:13:51.352Z,17.42
2023-03-08T06:16:18.981Z,14.27
2023-03-08T06:18:46.209Z,14.10
2023-03-08T06:21:16.638Z,13.93
2023-03-08T06:23:45.678Z,14.13
2023-03-08T06:26:14.068Z,14.73
2023-03-08T06:28:41.540Z,15.30
2023-03-08T06:31:13.733Z,16.92
2023-03-08T06:33:41.408Z,14.07
2023-03-08T06:36:12.639Z,14.87
2023-03-08T06:38:41.263Z,18.20
2023-03-08T06:41:15.427Z,18.27
2023-03-08T06:43:43.213Z,15.63
2023-03-08T06:46:19.461Z,16.80
2023-03-08T06:48:48.405Z,15.10
2023-03-08T06:51:16.217Z,14.80
2023-03-08T06:53:43.346Z,14.97
2023-03-08T06:56:15.152Z,14.97
2023-03-08T06:58:43.084Z,19.30
2023-03-08T07:01:10.716Z,15.90
2023-03-08T07:03:38.303Z,18.92
2023-03-08T07:06:08.794Z,18.63
2023-03-08T07:08:37.596Z,19.20
2023-03-08T07:11:06.742Z,19.77
2023-03-08T07:13:34.112Z,20.65
2023-03-08T07:16:10.367Z,19.13
2023-03-08T07:18:37.453Z,19.75
2023-03-08T07:21:05.329Z,19.50
2023-03-08T07:23:32.817Z,19.87
2023-03-08T07:26:00.008Z,19.63
2023-03-08T07:28:26.993Z,19.73
2023-03-08T07:30:54.437Z,19.48
2023-03-08T07:33:22.050Z,20.20
2023-03-08T07:35:49.437Z,20.48
2023-03-08T07:38:17.233Z,20.40
2023-03-08T07:40:45.158Z,21.20
2023-03-08T07:43:12.566Z,21.15
2023-03-08T07:45:40.232Z,21.35
2023-03-08T07:48:07.433Z,21.40
2023-03-08T07:50:34.741Z,21.73
2023-03-08T07:53:01.964Z,22.07
2023-03-08T07:55:29.172Z,21.80
2023-03-08T07:57:56.296Z,22.73
2023-03-08T08:00:24.729Z,22.08
2023-03-08T08:02:54.208Z,20.88
2023-03-08T08:05:22.351Z,21.80
2023-03-08T08:07:49.618Z,21.58
2023-03-08T11:30:49.481Z,23.08
2023-03-08T11:33:50.690Z,20.10
2023-03-08T11:36:38.849Z,19.13
2023-03-08T11:39:33.009Z,19.00
2023-03-08T11:42:13.458Z,16.97
2023-03-08T11:44:52.432Z,18.33
2023-03-08T11:47:38.451Z,18.33
2023-03-08T11:50:22.455Z,18.10
2023-03-08T11:53:04.605Z,17.80
2023-03-08T11:56:05.087Z,17.77
2023-03-08T11:58:42.224Z,16.00
2023-03-08T12:02:08.223Z,14.73
2023-03-08T12:05:01.963Z,15.67
2023-03-08T12:07:52.880Z,16.27
2023-03-08T12:10:41.886Z,15.90
2023-03-08T12:13:35.026Z,12.27
2023-03-08T12:16:37.072Z,14.97
2023-03-08T12:19:31.785Z,14.40
2023-03-08T12:22:35.708Z,12.73
2023-03-08T12:25:23.238Z,12.47
2023-03-08T12:27:56.435Z,12.77
2023-03-08T12:30:32.354Z,12.60
2023-03-08T12:33:03.092Z,11.43
2023-03-08T12:35:36.980Z,10.67
2023-03-08T12:38:33.342Z,11.03
2023-03-08T12:41:01.269Z,10.83
2023-03-08T12:43:32.794Z,10.77
2023-03-08T12:46:08.728Z,10.53
2023-03-08T12:48:45.249Z,10.93
2023-03-08T12:51:12.462Z,10.77
2023-03-08T12:53:51.096Z,9.80
2023-03-08T12:56:33.990Z,10.50
2023-03-08T12:59:28.105Z,10.27
2023-03-08T13:01:57.970Z,10.47
2023-03-08T13:04:41.682Z,10.63
2023-03-08T13:07:16.599Z,10.50
2023-03-08T13:09:46.941Z,9.83
2023-03-08T13:12:16.866Z,9.43
2023-03-08T13:15:13.732Z,10.10
2023-03-08T13:17:49.154Z,10.40
2023-03-08T13:20:41.612Z,9.47
2023-03-08T13:23:30.262Z,10.07
2023-03-08T13:26:47.474Z,9.37
2023-03-08T13:29:19.215Z,9.00
2023-03-08T13:31:47.893Z,9.60
2023-03-08T13:34:28.387Z,9.30
2023-03-08T13:36:55.914Z,8.80
2023-03-08T13:39:31.605Z,8.53
2023-03-08T13:42:12.886Z,7.60
2023-03-08T13:44:40.066Z,7.90
2023-03-08T13:47:28.664Z,8.07
2023-03-08T13:49:56.457Z,8.20
2023-03-08T13:52:35.933Z,7.50
